sensor_id;sensor_type;location;lat;lon;timestamp;temperature;humidity
22114;DHT22;11223;49.968;9.062;2022-10-01T00:00:52;7.10;99.90
22114;DHT22;11223;49.968;9.062;2022-10-01T00:03:19;7.10;99.90
22114;DHT22;11223;49.968;9.062;2022-10-01T00:05:46;7.10;99.90
22114;DHT22;11223;49.968;9.062;2022-10-01T00:08:15;7.10;99.90
22114;DHT22;11223;49.968;9.062;2022-10-01T00:10:42;7.10;99.90
22114;DHT22;11223;49.968;9.062;2022-10-01T00:13:08;7.10;99.90
22114;DHT22;11223;49.968;9.062;2022-10-01T00:15:37;7.10;99.90
22114;DHT22;11223;49.968;9.062;2022-10-01T00:18:03;7.10;99.90
22114;DHT22;11223;49.968;9.062;2022-10-01T00:20:29;7.10;99.90
22114;DHT22;11223;49.968;9.062;2022-10-01T00:22:54;7.10;99.90
22114;DHT22;11223;49.968;9.062;2022-10-01T00:25:20;7.10;99.90
22114;DHT22;11223;49.968;9.062;2022-10-01T00:27:46;7.10;99.90
22114;DHT22;11223;49.968;9.062;2022-10-01T00:30:12;7.00;99.90
22114;DHT22;11223;49.968;9.062;2022-10-01T00:32:37;7.00;99.90
22114;DHT22;11223;49.968;9.062;2022-10-01T00:35:06;7.00;99.90
22114;DHT22;11223;49.968;9.062;2022-10-01T00:37:34;7.00;99.90
22114;DHT22;11223;49.968;9.062;2022-10-01T00:40:02;7.00;99.90
22114;DHT22;11223;49.968;9.062;2022-10-01T00:42:28;6.90;99.90
22114;DHT22;11223;49.968;9.062;2022-10-01T00:44:54;6.90;99.90
22114;DHT22;11223;49.968;9.062;2022-10-01T00:47:35;6.90;99.90
22114;DHT22;11223;49.968;9.062;2022-10-01T00:52:49;6.90;99.90
22114;DHT22;11223;49.968;9.062;2022-10-01T00:55:29;6.90;99.90
22114;DHT22;11223;49.968;9.062;2022-10-01T00:57:57;6.90;99.90
22114;DHT22;11223;49.968;9.062;2022-10-01T01:00:23;6.90;99.90
22114;DHT22;11223;49.968;9.062;2022-10-01T01:02:49;7.00;99.90
22114;DHT22;11223;49.968;9.062;2022-10-01T01:05:16;7.00;99.90
22114;DHT22;11223;49.968;9.062;2022-10-01T01:07:45;7.00;99.90
22114;DHT22;11223;49.968;9.062;2022-10-01T01:10:14;7.10;99.90
22114;DHT22;11223;49.968;9.062;2022-10-01T01:13:00;7.10;99.90
22114;DHT22;11223;49.968;9.062;2022-10-01T01:15:45;7.20;99.90
22114;DHT22;11223;49.968;9.062;2022-10-01T01:18:21;7.30;99.90
22114;DHT22;11223;49.968;9.062;2022-10-01T01:21:18;7.30;99.90
22114;DHT22;11223;49.968;9.062;2022-10-01T01:24:02;7.40;99.90
22114;DHT22;11223;49.968;9.062;2022-10-01T01:29:37;7.40;99.90
22114;DHT22;11223;49.968;9.062;2022-10-01T01:32:10;7.50;99.90
22114;DHT22;11223;49.968;9.062;2022-10-01T01:34:37;7.50;99.90
22114;DHT22;11223;49.968;9.062;2022-10-01T01:37:06;7.50;99.90
22114;DHT22;11223;49.968;9.062;2022-10-01T01:39:37;7.60;99.90
22114;DHT22;11223;49.968;9.062;2022-10-01T01:42:09;7.60;99.90
22114;DHT22;11223;49.968;9.062;2022-10-01T01:44:41;7.60;99.90
22114;DHT22;11223;49.968;9.062;2022-10-01T01:47:09;7.60;99.90
22114;DHT22;11223;49.968;9.062;2022-10-01T01:49:37;7.70;99.90
22114;DHT22;11223;49.968;9.062;2022-10-01T01:52:08;7.70;99.90
22114;DHT22;11223;49.968;9.062;2022-10-01T01:54:38;7.70;99.90
22114;DHT22;11223;49.968;9.062;2022-10-01T01:57:05;7.70;99.90
22114;DHT22;11223;49.968;9.062;2022-10-01T01:59:32;7.70;99.90
22114;DHT22;11223;49.968;9.062;2022-10-01T02:01:58;7.70;99.90
22114;DHT22;11223;49.968;9.062;2022-10-01T02:04:43;7.70;99.90
22114;DHT22;11223;49.968;9.062;2022-10-01T02:10:53;7.70;99.90
22114;DHT22;11223;49.968;9.062;2022-10-01T02:15:45;7.80;99.90
22114;DHT22;11223;49.968;9.062;2022-10-01T02:18:45;7.80;99.90
22114;DHT22;11223;49.968;9.062;2022-10-01T02:21:34;7.80;99.90
22114;DHT22;11223;49.968;9.062;2022-10-01T02:24:14;7.70;99.90
22114;DHT22;11223;49.968;9.062;2022-10-01T02:26:44;7.70;99.90
22114;DHT22;11223;49.968;9.062;2022-10-01T02:29:15;7.70;99.90
22114;DHT22;11223;49.968;9.062;2022-10-01T02:31:44;7.70;99.90
22114;DHT22;11223;49.968;9.062;2022-10-01T02:34:12;7.70;99.90
22114;DHT22;11223;49.968;9.062;2022-10-01T02:36:41;7.70;99.90
22114;DHT22;11223;49.968;9.062;2022-10-01T02:39:11;7.70;99.90
22114;DHT22;11223;49.968;9.062;2022-10-01T02:41:37;7.70;99.90
22114;DHT22;11223;49.968;9.062;2022-10-01T02:44:11;7.70;99.90
22114;DHT22;11223;49.968;9.062;2022-10-01T02:49:44;7.70;99.90
22114;DHT22;11223;49.968;9.062;2022-10-01T02:53:02;7.70;99.90
22114;DHT22;11223;49.968;9.062;2022-10-01T02:55:29;7.70;99.90
22114;DHT22;11223;49.968;9.062;2022-10-01T02:57:56;7.80;99.90
22114;DHT22;11223;49.968;9.062;2022-10-01T03:00:22;7.80;99.90
22114;DHT22;11223;49.968;9.062;2022-10-01T03:02:48;7.80;99.90
22114;DHT22;11223;49.968;9.062;2022-10-01T03:05:15;7.80;99.90
22114;DHT22;11223;49.968;9.062;2022-10-01T03:07:41;7.90;99.90
22114;DHT22;11223;49.968;9.062;2022-10-01T03:10:09;7.90;99.90
22114;DHT22;11223;49.968;9.062;2022-10-01T03:12:35;7.90;99.90
22114;DHT22;11223;49.968;9.062;2022-10-01T03:15:01;8.00;99.90
22114;DHT22;11223;49.968;9.062;2022-10-01T03:17:27;8.00;99.90
22114;DHT22;11223;49.968;9.062;2022-10-01T03:19:53;8.00;99.90
22114;DHT22;11223;49.968;9.062;2022-10-01T03:22:19;8.10;99.90
22114;DHT22;11223;49.968;9.062;2022-10-01T03:24:52;8.10;99.90
22114;DHT22;11223;49.968;9.062;2022-10-01T03:27:19;8.10;99.90
22114;DHT22;11223;49.968;9.062;2022-10-01T03:29:45;8.10;99.90
22114;DHT22;11223;49.968;9.062;2022-10-01T03:32:11;8.10;99.90
22114;DHT22;11223;49.968;9.062;2022-10-01T03:34:36;8.20;99.90
22114;DHT22;11223;49.968;9.062;2022-10-01T03:37:03;8.20;99.90
22114;DHT22;11223;49.968;9.062;2022-10-01T03:39:29;8.20;99.90
22114;DHT22;11223;49.968;9.062;2022-10-01T03:41:54;8.30;99.90
22114;DHT22;11223;49.968;9.062;2022-10-01T03:44:20;8.30;99.90
22114;DHT22;11223;49.968;9.062;2022-10-01T03:46:46;8.30;99.90
22114;DHT22;11223;49.968;9.062;2022-10-01T03:49:11;8.30;99.90
22114;DHT22;11223;49.968;9.062;2022-10-01T03:51:37;8.40;99.90
22114;DHT22;11223;49.968;9.062;2022-10-01T03:54:04;8.40;99.90
22114;DHT22;11223;49.968;9.062;2022-10-01T03:56:30;8.50;99.90
22114;DHT22;11223;49.968;9.062;2022-10-01T03:58:56;8.60;99.90
22114;DHT22;11223;49.968;9.062;2022-10-01T04:01:21;8.60;99.90
22114;DHT22;11223;49.968;9.062;2022-10-01T04:03:47;8.70;99.90
22114;DHT22;11223;49.968;9.062;2022-10-01T04:06:15;8.70;99.90
22114;DHT22;11223;49.968;9.062;2022-10-01T04:08:41;8.80;99.90
22114;DHT22;11223;49.968;9.062;2022-10-01T04:11:07;8.80;99.90
22114;DHT22;11223;49.968;9.062;2022-10-01T04:13:33;8.80;99.90
22114;DHT22;11223;49.968;9.062;2022-10-01T04:16:03;8.90;99.90
22114;DHT22;11223;49.968;9.062;2022-10-01T04:18:29;8.90;99.90
22114;DHT22;11223;49.968;9.062;2022-10-01T04:20:55;8.90;99.90
22114;DHT22;11223;49.968;9.062;2022-10-01T04:23:22;9.00;99.90
22114;DHT22;11223;49.968;9.062;2022-10-01T04:25:48;9.10;99.90
22114;DHT22;11223;49.968;9.062;2022-10-01T04:28:14;9.10;99.90
22114;DHT22;11223;49.968;9.062;2022-10-01T04:30:42;9.10;99.90
22114;DHT22;11223;49.968;9.062;2022-10-01T04:33:11;9.10;99.90
22114;DHT22;11223;49.968;9.062;2022-10-01T04:35:37;9.10;99.90
22114;DHT22;11223;49.968;9.062;2022-10-01T04:38:06;9.10;99.90
22114;DHT22;11223;49.968;9.062;2022-10-01T04:40:34;9.10;99.90
22114;DHT22;11223;49.968;9.062;2022-10-01T04:43:01;9.00;99.90
22114;DHT22;11223;49.968;9.062;2022-10-01T04:45:27;9.00;99.90
22114;DHT22;11223;49.968;9.062;2022-10-01T04:47:54;9.00;99.90
22114;DHT22;11223;49.968;9.062;2022-10-01T04:50:21;9.00;99.90
22114;DHT22;11223;49.968;9.062;2022-10-01T04:52:47;9.00;99.90
22114;DHT22;11223;49.968;9.062;2022-10-01T04:55:14;9.00;99.90
22114;DHT22;11223;49.968;9.062;2022-10-01T04:57:41;9.00;99.90
22114;DHT22;11223;49.968;9.062;2022-10-01T05:00:10;9.00;99.90
22114;DHT22;11223;49.968;9.062;2022-10-01T05:02:36;9.00;99.90
22114;DHT22;11223;49.968;9.062;2022-10-01T05:05:03;9.00;99.90
22114;DHT22;11223;49.968;9.062;2022-10-01T05:07:30;9.00;99.90
22114;DHT22;11223;49.968;9.062;2022-10-01T05:09:56;9.00;99.90
22114;DHT22;11223;49.968;9.062;2022-10-01T05:12:22;9.00;99.90
22114;DHT22;11223;49.968;9.062;2022-10-01T05:14:51;9.00;99.90
22114;DHT22;11223;49.968;9.062;2022-10-01T05:17:16;9.00;99.90
22114;DHT22;11223;49.968;9.062;2022-10-01T05:19:44;9.10;99.90
22114;DHT22;11223;49.968;9.062;2022-10-01T05:22:09;9.10;99.90
22114;DHT22;11223;49.968;9.062;2022-10-01T05:24:35;9.10;99.90
22114;DHT22;11223;49.968;9.062;2022-10-01T05:27:01;9.10;99.90
22114;DHT22;11223;49.968;9.062;2022-10-01T05:29:26;9.10;99.90
22114;DHT22;11223;49.968;9.062;2022-10-01T05:31:52;9.20;99.90
22114;DHT22;11223;49.968;9.062;2022-10-01T05:34:17;9.20;99.90
22114;DHT22;11223;49.968;9.062;2022-10-01T05:36:43;9.20;99.90
22114;DHT22;11223;49.968;9.062;2022-10-01T05:39:09;9.30;99.90
22114;DHT22;11223;49.968;9.062;2022-10-01T05:41:34;9.30;99.90
22114;DHT22;11223;49.968;9.062;2022-10-01T05:44:00;9.30;99.90
22114;DHT22;11223;49.968;9.062;2022-10-01T05:46:27;9.40;99.90
22114;DHT22;11223;49.968;9.062;2022-10-01T05:48:52;9.40;99.90
22114;DHT22;11223;49.968;9.062;2022-10-01T05:51:18;9.40;99.90
22114;DHT22;11223;49.968;9.062;2022-10-01T05:53:44;9.40;99.90
22114;DHT22;11223;49.968;9.062;2022-10-01T05:56:11;9.50;99.90
22114;DHT22;11223;49.968;9.062;2022-10-01T05:58:37;9.50;99.90
22114;DHT22;11223;49.968;9.062;2022-10-01T06:01:03;9.50;99.90
22114;DHT22;11223;49.968;9.062;2022-10-01T06:03:29;9.50;99.90
22114;DHT22;11223;49.968;9.062;2022-10-01T06:05:55;9.50;99.90
22114;DHT22;11223;49.968;9.062;2022-10-01T06:08:21;9.50;99.90
22114;DHT22;11223;49.968;9.062;2022-10-01T06:10:47;9.50;99.90
22114;DHT22;11223;49.968;9.062;2022-10-01T06:13:13;9.50;99.90
22114;DHT22;11223;49.968;9.062;2022-10-01T06:15:43;9.50;99.90
22114;DHT22;11223;49.968;9.062;2022-10-01T06:18:10;9.50;99.90
22114;DHT22;11223;49.968;9.062;2022-10-01T06:20:38;9.50;99.90
22114;DHT22;11223;49.968;9.062;2022-10-01T06:23:05;9.60;99.90
22114;DHT22;11223;49.968;9.062;2022-10-01T06:25:32;9.60;99.90
22114;DHT22;11223;49.968;9.062;2022-10-01T06:28:00;9.60;99.90
22114;DHT22;11223;49.968;9.062;2022-10-01T06:30:30;9.60;99.90
22114;DHT22;11223;49.968;9.062;2022-10-01T06:35:30;9.60;99.90
22114;DHT22;11223;49.968;9.062;2022-10-01T06:37:55;9.70;99.90
22114;DHT22;11223;49.968;9.062;2022-10-01T06:40:21;9.70;99.90
22114;DHT22;11223;49.968;9.062;2022-10-01T06:42:47;9.70;99.90
22114;DHT22;11223;49.968;9.062;2022-10-01T06:45:14;9.70;99.90
22114;DHT22;11223;49.968;9.062;2022-10-01T06:47:40;9.70;99.90
22114;DHT22;11223;49.968;9.062;2022-10-01T06:50:06;9.70;99.90
22114;DHT22;11223;49.968;9.062;2022-10-01T06:52:32;9.70;99.90
22114;DHT22;11223;49.968;9.062;2022-10-01T06:55:19;9.70;99.90
22114;DHT22;11223;49.968;9.062;2022-10-01T06:57:46;9.80;99.90
22114;DHT22;11223;49.968;9.062;2022-10-01T07:00:12;9.80;99.90
22114;DHT22;11223;49.968;9.062;2022-10-01T07:02:39;9.80;99.90
22114;DHT22;11223;49.968;9.062;2022-10-01T07:05:05;9.80;99.90
22114;DHT22;11223;49.968;9.062;2022-10-01T07:07:34;9.80;99.90
22114;DHT22;11223;49.968;9.062;2022-10-01T07:10:03;9.80;99.90
22114;DHT22;11223;49.968;9.062;2022-10-01T07:12:29;9.90;99.90
22114;DHT22;11223;49.968;9.062;2022-10-01T07:14:55;9.90;99.90
22114;DHT22;11223;49.968;9.062;2022-10-01T07:17:21;9.90;99.90
22114;DHT22;11223;49.968;9.062;2022-10-01T07:19:47;9.90;99.90
22114;DHT22;11223;49.968;9.062;2022-10-01T07:22:12;9.90;99.90
22114;DHT22;11223;49.968;9.062;2022-10-01T07:24:38;9.90;99.90
22114;DHT22;11223;49.968;9.062;2022-10-01T07:27:04;10.00;99.90
22114;DHT22;11223;49.968;9.062;2022-10-01T07:29:30;10.00;99.90
22114;DHT22;11223;49.968;9.062;2022-10-01T07:31:57;10.00;99.90
22114;DHT22;11223;49.968;9.062;2022-10-01T07:34:27;10.00;99.90
22114;DHT22;11223;49.968;9.062;2022-10-01T07:36:53;10.00;99.90
22114;DHT22;11223;49.968;9.062;2022-10-01T07:39:21;10.00;99.90
22114;DHT22;11223;49.968;9.062;2022-10-01T07:41:46;10.00;99.90
22114;DHT22;11223;49.968;9.062;2022-10-01T07:44:12;10.10;99.90
22114;DHT22;11223;49.968;9.062;2022-10-01T07:46:38;10.10;99.90
22114;DHT22;11223;49.968;9.062;2022-10-01T07:49:04;10.10;99.90
22114;DHT22;11223;49.968;9.062;2022-10-01T07:51:30;10.20;99.90
22114;DHT22;11223;49.968;9.062;2022-10-01T07:53:56;10.20;99.90
22114;DHT22;11223;49.968;9.062;2022-10-01T07:56:24;10.20;99.90
22114;DHT22;11223;49.968;9.062;2022-10-01T07:58:56;10.20;99.90
22114;DHT22;11223;49.968;9.062;2022-10-01T08:01:22;10.20;99.90
22114;DHT22;11223;49.968;9.062;2022-10-01T08:03:49;10.30;99.90
22114;DHT22;11223;49.968;9.062;2022-10-01T08:06:16;10.30;99.90
22114;DHT22;11223;49.968;9.062;2022-10-01T08:08:42;10.30;99.90
22114;DHT22;11223;49.968;9.062;2022-10-01T08:11:09;10.30;99.90
22114;DHT22;11223;49.968;9.062;2022-10-01T08:13:35;10.30;99.90
22114;DHT22;11223;49.968;9.062;2022-10-01T08:16:05;10.30;99.90
22114;DHT22;11223;49.968;9.062;2022-10-01T08:18:34;10.40;99.90
22114;DHT22;11223;49.968;9.062;2022-10-01T08:21:00;10.40;99.90
22114;DHT22;11223;49.968;9.062;2022-10-01T08:23:27;10.40;99.90
22114;DHT22;11223;49.968;9.062;2022-10-01T08:26:02;10.40;99.90
22114;DHT22;11223;49.968;9.062;2022-10-01T08:28:28;10.40;99.90
22114;DHT22;11223;49.968;9.062;2022-10-01T08:30:54;10.50;99.90
22114;DHT22;11223;49.968;9.062;2022-10-01T08:33:20;10.50;99.90
22114;DHT22;11223;49.968;9.062;2022-10-01T08:35:46;10.40;99.90
22114;DHT22;11223;49.968;9.062;2022-10-01T08:38:12;10.50;99.90
22114;DHT22;11223;49.968;9.062;2022-10-01T08:40:44;10.40;99.90
22114;DHT22;11223;49.968;9.062;2022-10-01T08:43:27;10.50;99.90
22114;DHT22;11223;49.968;9.062;2022-10-01T08:45:55;10.50;99.90
22114;DHT22;11223;49.968;9.062;2022-10-01T08:48:29;10.50;99.90
22114;DHT22;11223;49.968;9.062;2022-10-01T08:51:10;10.50;99.90
22114;DHT22;11223;49.968;9.062;2022-10-01T08:53:47;10.50;99.90
22114;DHT22;11223;49.968;9.062;2022-10-01T08:56:21;10.50;99.90
22114;DHT22;11223;49.968;9.062;2022-10-01T08:58:52;10.60;99.90
22114;DHT22;11223;49.968;9.062;2022-10-01T09:01:20;10.50;99.90
22114;DHT22;11223;49.968;9.062;2022-10-01T09:03:46;10.60;99.90
22114;DHT22;11223;49.968;9.062;2022-10-01T09:06:24;10.60;99.90
22114;DHT22;11223;49.968;9.062;2022-10-01T09:19:58;10.70;99.90
22114;DHT22;11223;49.968;9.062;2022-10-01T09:22:48;10.70;99.90
22114;DHT22;11223;49.968;9.062;2022-10-01T09:25:25;10.80;99.90
22114;DHT22;11223;49.968;9.062;2022-10-01T09:28:08;10.80;99.90
22114;DHT22;11223;49.968;9.062;2022-10-01T09:30:36;10.80;99.90
22114;DHT22;11223;49.968;9.062;2022-10-01T09:33:16;10.90;99.90
22114;DHT22;11223;49.968;9.062;2022-10-01T09:35:55;10.90;99.90
22114;DHT22;11223;49.968;9.062;2022-10-01T09:38:37;11.00;99.90
22114;DHT22;11223;49.968;9.062;2022-10-01T09:41:03;11.00;99.90
22114;DHT22;11223;49.968;9.062;2022-10-01T09:43:32;11.00;99.90
22114;DHT22;11223;49.968;9.062;2022-10-01T09:45:58;11.00;99.90
22114;DHT22;11223;49.968;9.062;2022-10-01T09:51:43;11.10;99.90
22114;DHT22;11223;49.968;9.062;2022-10-01T09:54:32;11.20;99.90
22114;DHT22;11223;49.968;9.062;2022-10-01T09:57:12;11.20;99.90
22114;DHT22;11223;49.968;9.062;2022-10-01T10:02:24;11.20;99.90
22114;DHT22;11223;49.968;9.062;2022-10-01T10:05:15;11.30;99.90
22114;DHT22;11223;49.968;9.062;2022-10-01T10:08:09;11.30;99.90
22114;DHT22;11223;49.968;9.062;2022-10-01T10:10:37;11.30;99.90
22114;DHT22;11223;49.968;9.062;2022-10-01T10:13:12;11.30;99.90
22114;DHT22;11223;49.968;9.062;2022-10-01T10:15:49;11.40;99.90
22114;DHT22;11223;49.968;9.062;2022-10-01T10:18:16;11.40;99.90
22114;DHT22;11223;49.968;9.062;2022-10-01T10:20:50;11.40;99.90
22114;DHT22;11223;49.968;9.062;2022-10-01T10:23:21;11.40;99.90
22114;DHT22;11223;49.968;9.062;2022-10-01T10:26:05;11.50;99.90
22114;DHT22;11223;49.968;9.062;2022-10-01T10:28:40;11.60;99.90
22114;DHT22;11223;49.968;9.062;2022-10-01T10:31:13;11.70;99.90
22114;DHT22;11223;49.968;9.062;2022-10-01T10:33:51;11.80;99.90
22114;DHT22;11223;49.968;9.062;2022-10-01T10:36:18;11.80;99.90
22114;DHT22;11223;49.968;9.062;2022-10-01T10:38:47;11.90;99.90
22114;DHT22;11223;49.968;9.062;2022-10-01T10:41:16;11.90;99.90
22114;DHT22;11223;49.968;9.062;2022-10-01T10:43:44;11.90;99.90
22114;DHT22;11223;49.968;9.062;2022-10-01T10:46:31;11.90;99.90
22114;DHT22;11223;49.968;9.062;2022-10-01T10:49:16;12.00;99.90
22114;DHT22;11223;49.968;9.062;2022-10-01T10:51:47;12.10;99.90
22114;DHT22;11223;49.968;9.062;2022-10-01T10:54:32;12.20;99.90
22114;DHT22;11223;49.968;9.062;2022-10-01T10:59:57;12.40;99.90
22114;DHT22;11223;49.968;9.062;2022-10-01T11:02:29;12.60;99.90
22114;DHT22;11223;49.968;9.062;2022-10-01T11:05:11;12.80;99.90
22114;DHT22;11223;49.968;9.062;2022-10-01T11:07:43;13.00;99.90
22114;DHT22;11223;49.968;9.062;2022-10-01T11:10:33;13.10;99.90
22114;DHT22;11223;49.968;9.062;2022-10-01T11:19:17;13.10;99.90
22114;DHT22;11223;49.968;9.062;2022-10-01T11:22:19;13.10;99.90
22114;DHT22;11223;49.968;9.062;2022-10-01T11:25:13;13.00;99.90
22114;DHT22;11223;49.968;9.062;2022-10-01T11:30:36;12.90;99.90
22114;DHT22;11223;49.968;9.062;2022-10-01T11:38:49;12.80;99.90
22114;DHT22;11223;49.968;9.062;2022-10-01T11:43:54;13.00;99.90
22114;DHT22;11223;49.968;9.062;2022-10-01T11:49:16;13.00;99.90
22114;DHT22;11223;49.968;9.062;2022-10-01T11:51:47;13.00;99.90
22114;DHT22;11223;49.968;9.062;2022-10-01T11:54:17;12.90;99.90
22114;DHT22;11223;49.968;9.062;2022-10-01T11:56:49;12.80;99.90
22114;DHT22;11223;49.968;9.062;2022-10-01T11:59:49;12.90;99.90
22114;DHT22;11223;49.968;9.062;2022-10-01T12:02:29;13.00;99.90
22114;DHT22;11223;49.968;9.062;2022-10-01T12:05:08;13.10;99.90
22114;DHT22;11223;49.968;9.062;2022-10-01T12:07:56;13.20;99.90
22114;DHT22;11223;49.968;9.062;2022-10-01T12:10:38;13.30;99.90
22114;DHT22;11223;49.968;9.062;2022-10-01T12:13:20;13.50;99.90
22114;DHT22;11223;49.968;9.062;2022-10-01T12:18:28;13.70;99.90
22114;DHT22;11223;49.968;9.062;2022-10-01T12:20:59;13.70;99.90
22114;DHT22;11223;49.968;9.062;2022-10-01T12:23:29;13.80;99.90
22114;DHT22;11223;49.968;9.062;2022-10-01T12:28:40;13.90;99.90
22114;DHT22;11223;49.968;9.062;2022-10-01T12:31:21;14.00;99.90
22114;DHT22;11223;49.968;9.062;2022-10-01T12:36:57;14.30;99.90
22114;DHT22;11223;49.968;9.062;2022-10-01T12:47:56;15.20;99.90
22114;DHT22;11223;49.968;9.062;2022-10-01T12:53:29;15.10;99.90
22114;DHT22;11223;49.968;9.062;2022-10-01T13:01:49;15.00;99.90
22114;DHT22;11223;49.968;9.062;2022-10-01T13:04:23;15.10;99.90
22114;DHT22;11223;49.968;9.062;2022-10-01T13:07:28;15.20;99.90
22114;DHT22;11223;49.968;9.062;2022-10-01T13:15:20;15.00;99.90
22114;DHT22;11223;49.968;9.062;2022-10-01T13:17:57;14.90;99.90
22114;DHT22;11223;49.968;9.062;2022-10-01T13:20:32;14.90;99.90
22114;DHT22;11223;49.968;9.062;2022-10-01T13:23:23;14.90;99.90
22114;DHT22;11223;49.968;9.062;2022-10-01T13:28:39;14.90;99.90
22114;DHT22;11223;49.968;9.062;2022-10-01T13:31:13;14.80;99.90
22114;DHT22;11223;49.968;9.062;2022-10-01T13:33:40;14.70;99.90
22114;DHT22;11223;49.968;9.062;2022-10-01T13:36:08;14.60;99.90
22114;DHT22;11223;49.968;9.062;2022-10-01T13:41:04;14.50;99.90
22114;DHT22;11223;49.968;9.062;2022-10-01T13:43:32;14.50;99.90
22114;DHT22;11223;49.968;9.062;2022-10-01T13:46:06;14.40;99.90
22114;DHT22;11223;49.968;9.062;2022-10-01T13:48:34;14.40;99.90
22114;DHT22;11223;49.968;9.062;2022-10-01T13:51:07;14.40;99.90
22114;DHT22;11223;49.968;9.062;2022-10-01T13:56:12;14.40;99.90
22114;DHT22;11223;49.968;9.062;2022-10-01T13:58:43;14.40;99.90
22114;DHT22;11223;49.968;9.062;2022-10-01T14:11:58;14.70;99.90
22114;DHT22;11223;49.968;9.062;2022-10-01T14:14:58;14.70;99.90
22114;DHT22;11223;49.968;9.062;2022-10-01T14:17:45;14.60;99.90
22114;DHT22;11223;49.968;9.062;2022-10-01T14:20:21;14.60;99.90
22114;DHT22;11223;49.968;9.062;2022-10-01T14:23:12;14.50;99.90
22114;DHT22;11223;49.968;9.062;2022-10-01T14:26:05;14.40;99.90
22114;DHT22;11223;49.968;9.062;2022-10-01T14:34:17;14.30;99.90
22114;DHT22;11223;49.968;9.062;2022-10-01T14:36:47;14.30;99.90
22114;DHT22;11223;49.968;9.062;2022-10-01T14:39:27;14.40;99.90
22114;DHT22;11223;49.968;9.062;2022-10-01T14:41:54;14.40;99.90
22114;DHT22;11223;49.968;9.062;2022-10-01T14:44:35;14.40;99.90
22114;DHT22;11223;49.968;9.062;2022-10-01T14:49:37;14.50;99.90
22114;DHT22;11223;49.968;9.062;2022-10-01T14:52:16;14.50;99.90
22114;DHT22;11223;49.968;9.062;2022-10-01T14:54:58;14.50;99.90
22114;DHT22;11223;49.968;9.062;2022-10-01T14:57:46;14.50;99.90
22114;DHT22;11223;49.968;9.062;2022-10-01T15:00:22;14.50;99.90
22114;DHT22;11223;49.968;9.062;2022-10-01T15:05:33;14.50;99.90
22114;DHT22;11223;49.968;9.062;2022-10-01T15:08:14;14.50;99.90
22114;DHT22;11223;49.968;9.062;2022-10-01T15:10:54;14.50;99.90
22114;DHT22;11223;49.968;9.062;2022-10-01T15:13:26;14.50;99.90
22114;DHT22;11223;49.968;9.062;2022-10-01T15:15:54;14.50;99.90
22114;DHT22;11223;49.968;9.062;2022-10-01T15:18:21;14.50;99.90
22114;DHT22;11223;49.968;9.062;2022-10-01T15:21:02;14.50;99.90
22114;DHT22;11223;49.968;9.062;2022-10-01T15:23:30;14.60;99.90
22114;DHT22;11223;49.968;9.062;2022-10-01T15:25:57;14.60;99.90
22114;DHT22;11223;49.968;9.062;2022-10-01T15:28:29;14.60;99.90
22114;DHT22;11223;49.968;9.062;2022-10-01T15:30:57;14.70;99.90
22114;DHT22;11223;49.968;9.062;2022-10-01T15:33:28;14.60;99.90
22114;DHT22;11223;49.968;9.062;2022-10-01T15:36:01;14.50;99.90
22114;DHT22;11223;49.968;9.062;2022-10-01T15:38:28;14.50;99.90
22114;DHT22;11223;49.968;9.062;2022-10-01T15:41:00;14.50;99.90
22114;DHT22;11223;49.968;9.062;2022-10-01T15:43:35;14.50;99.90
22114;DHT22;11223;49.968;9.062;2022-10-01T15:48:31;14.50;99.90
22114;DHT22;11223;49.968;9.062;2022-10-01T15:51:02;14.40;99.90
22114;DHT22;11223;49.968;9.062;2022-10-01T15:53:30;14.40;99.90
22114;DHT22;11223;49.968;9.062;2022-10-01T15:55:58;14.40;99.90
22114;DHT22;11223;49.968;9.062;2022-10-01T15:58:25;14.30;99.90
22114;DHT22;11223;49.968;9.062;2022-10-01T16:01:11;14.30;99.90
22114;DHT22;11223;49.968;9.062;2022-10-01T16:03:52;14.20;99.90
22114;DHT22;11223;49.968;9.062;2022-10-01T16:11:18;14.00;99.90
22114;DHT22;11223;49.968;9.062;2022-10-01T16:13:46;14.00;99.90
22114;DHT22;11223;49.968;9.062;2022-10-01T16:18:40;13.90;99.90
22114;DHT22;11223;49.968;9.062;2022-10-01T16:21:08;13.90;99.90
22114;DHT22;11223;49.968;9.062;2022-10-01T16:23:41;13.90;99.90
22114;DHT22;11223;49.968;9.062;2022-10-01T16:31:26;13.70;99.90
22114;DHT22;11223;49.968;9.062;2022-10-01T16:33:52;13.70;99.90
22114;DHT22;11223;49.968;9.062;2022-10-01T16:36:19;13.70;99.90
22114;DHT22;11223;49.968;9.062;2022-10-01T16:38:46;13.70;99.90
22114;DHT22;11223;49.968;9.062;2022-10-01T16:41:20;13.70;99.90
22114;DHT22;11223;49.968;9.062;2022-10-01T16:43:50;13.70;99.90
22114;DHT22;11223;49.968;9.062;2022-10-01T16:46:16;13.60;99.90
22114;DHT22;11223;49.968;9.062;2022-10-01T16:48:42;13.60;99.90
22114;DHT22;11223;49.968;9.062;2022-10-01T16:51:07;13.60;99.90
22114;DHT22;11223;49.968;9.062;2022-10-01T16:53:33;13.60;99.90
22114;DHT22;11223;49.968;9.062;2022-10-01T16:55:59;13.50;99.90
22114;DHT22;11223;49.968;9.062;2022-10-01T16:58:25;13.50;99.90
22114;DHT22;11223;49.968;9.062;2022-10-01T17:00:51;13.50;99.90
22114;DHT22;11223;49.968;9.062;2022-10-01T17:03:19;13.50;99.90
22114;DHT22;11223;49.968;9.062;2022-10-01T17:05:46;13.50;99.90
22114;DHT22;11223;49.968;9.062;2022-10-01T17:08:13;13.50;99.90
22114;DHT22;11223;49.968;9.062;2022-10-01T17:10:44;13.40;99.90
22114;DHT22;11223;49.968;9.062;2022-10-01T17:13:12;13.40;99.90
22114;DHT22;11223;49.968;9.062;2022-10-01T17:15:38;13.40;99.90
22114;DHT22;11223;49.968;9.062;2022-10-01T17:18:04;13.40;99.90
22114;DHT22;11223;49.968;9.062;2022-10-01T17:20:30;13.30;99.90
22114;DHT22;11223;49.968;9.062;2022-10-01T17:22:57;13.40;99.90
22114;DHT22;11223;49.968;9.062;2022-10-01T17:25:25;13.30;99.90
22114;DHT22;11223;49.968;9.062;2022-10-01T17:27:55;13.30;99.90
22114;DHT22;11223;49.968;9.062;2022-10-01T17:30:21;13.30;99.90
22114;DHT22;11223;49.968;9.062;2022-10-01T17:32:46;13.30;99.90
22114;DHT22;11223;49.968;9.062;2022-10-01T17:35:13;13.30;99.90
22114;DHT22;11223;49.968;9.062;2022-10-01T17:37:39;13.30;99.90
22114;DHT22;11223;49.968;9.062;2022-10-01T17:40:06;13.30;99.90
22114;DHT22;11223;49.968;9.062;2022-10-01T17:42:33;13.30;99.90
22114;DHT22;11223;49.968;9.062;2022-10-01T17:45:01;13.30;99.90
22114;DHT22;11223;49.968;9.062;2022-10-01T17:47:27;13.30;99.90
22114;DHT22;11223;49.968;9.062;2022-10-01T17:49:52;13.30;99.90
22114;DHT22;11223;49.968;9.062;2022-10-01T17:52:18;13.30;99.90
22114;DHT22;11223;49.968;9.062;2022-10-01T17:54:44;13.30;99.90
22114;DHT22;11223;49.968;9.062;2022-10-01T17:57:10;13.30;99.90
22114;DHT22;11223;49.968;9.062;2022-10-01T17:59:36;13.30;99.90
22114;DHT22;11223;49.968;9.062;2022-10-01T18:02:03;13.30;99.90
22114;DHT22;11223;49.968;9.062;2022-10-01T18:04:28;13.30;99.90
22114;DHT22;11223;49.968;9.062;2022-10-01T18:06:54;13.30;99.90
22114;DHT22;11223;49.968;9.062;2022-10-01T18:09:20;13.30;99.90
22114;DHT22;11223;49.968;9.062;2022-10-01T18:11:47;13.30;99.90